sensor_id;sensor_type;location;lat;lon;timestamp;pressure;altitude;pressure_sealevel;temperature;humidity
60489;BME280;46331;49.252;8.904;2023-12-20T00:00:17;99797.13;;;4.59;100.00
60489;BME280;46331;49.252;8.904;2023-12-20T00:00:57;99810.47;;;4.64;100.00
60489;BME280;46331;49.252;8.904;2023-12-20T00:01:41;99795.72;;;4.63;100.00
60489;BME280;46331;49.252;8.904;2023-12-20T00:02:21;99809.09;;;4.69;100.00
60489;BME280;46331;49.252;8.904;2023-12-20T00:03:02;99807.63;;;4.59;100.00
60489;BME280;46331;49.252;8.904;2023-12-20T00:03:42;99797.72;;;4.55;100.00
60489;BME280;46331;49.252;8.904;2023-12-20T00:04:23;99793.72;;;4.65;100.00
60489;BME280;46331;49.252;8.904;2023-12-20T00:05:04;99796.34;;;4.65;100.00
60489;BME280;46331;49.252;8.904;2023-12-20T00:05:45;99796.94;;;4.61;100.00
60489;BME280;46331;49.252;8.904;2023-12-20T00:06:26;99795.75;;;4.70;100.00
60489;BME280;46331;49.252;8.904;2023-12-20T00:07:06;99799.50;;;4.54;100.00
60489;BME280;46331;49.252;8.904;2023-12-20T00:07:47;99786.03;;;4.71;100.00
60489;BME280;46331;49.252;8.904;2023-12-20T00:08:27;99791.91;;;4.73;100.00
60489;BME280;46331;49.252;8.904;2023-12-20T00:09:08;99788.09;;;4.75;100.00
60489;BME280;46331;49.252;8.904;2023-12-20T00:09:48;99793.13;;;4.70;100.00
60489;BME280;46331;49.252;8.904;2023-12-20T00:10:29;99791.28;;;4.64;100.00
60489;BME280;46331;49.252;8.904;2023-12-20T00:11:09;99788.47;;;4.65;100.00
60489;BME280;46331;49.252;8.904;2023-12-20T00:11:50;99793.47;;;4.54;100.00
60489;BME280;46331;49.252;8.904;2023-12-20T00:12:31;99792.88;;;4.58;100.00
60489;BME280;46331;49.252;8.904;2023-12-20T00:13:11;99793.47;;;4.54;100.00
60489;BME280;46331;49.252;8.904;2023-12-20T00:13:52;99782.16;;;4.53;100.00
60489;BME280;46331;49.252;8.904;2023-12-20T00:14:32;99788.41;;;4.52;100.00
60489;BME280;46331;49.252;8.904;2023-12-20T00:15:13;99782.97;;;4.60;100.00
60489;BME280;46331;49.252;8.904;2023-12-20T00:15:54;99788.00;;;4.55;100.00
60489;BME280;46331;49.252;8.904;2023-12-20T00:16:34;99780.13;;;4.48;100.00
60489;BME280;46331;49.252;8.904;2023-12-20T00:17:15;99785.16;;;4.50;100.00
60489;BME280;46331;49.252;8.904;2023-12-20T00:17:55;99785.78;;;4.52;100.00
60489;BME280;46331;49.252;8.904;2023-12-20T00:18:36;99783.75;;;4.54;100.00
60489;BME280;46331;49.252;8.904;2023-12-20T00:19:16;99779.94;;;4.63;100.00
60489;BME280;46331;49.252;8.904;2023-12-20T00:19:57;99779.16;;;4.63;100.00
60489;BME280;46331;49.252;8.904;2023-12-20T00:20:38;99785.41;;;4.62;100.00
60489;BME280;46331;49.252;8.904;2023-12-20T00:21:18;99788.78;;;4.49;100.00
60489;BME280;46331;49.252;8.904;2023-12-20T00:21:59;99789.59;;;4.50;100.00
60489;BME280;46331;49.252;8.904;2023-12-20T00:22:40;99787.78;;;4.50;100.00
60489;BME280;46331;49.252;8.904;2023-12-20T00:23:20;99779.06;;;4.43;100.00
60489;BME280;46331;49.252;8.904;2023-12-20T00:24:01;99781.31;;;4.53;100.00
60489;BME280;46331;49.252;8.904;2023-12-20T00:24:42;99778.53;;;4.61;100.00
60489;BME280;46331;49.252;8.904;2023-12-20T00:25:23;99789.41;;;4.51;100.00
60489;BME280;46331;49.252;8.904;2023-12-20T00:26:04;99785.13;;;4.43;100.00
60489;BME280;46331;49.252;8.904;2023-12-20T00:26:44;99786.38;;;4.47;100.00
60489;BME280;46331;49.252;8.904;2023-12-20T00:27:25;99783.94;;;4.53;100.00
60489;BME280;46331;49.252;8.904;2023-12-20T00:28:06;99781.53;;;4.51;100.00
60489;BME280;46331;49.252;8.904;2023-12-20T00:28:46;99782.75;;;4.48;100.00
60489;BME280;46331;49.252;8.904;2023-12-20T00:29:27;99777.25;;;4.43;100.00
60489;BME280;46331;49.252;8.904;2023-12-20T00:30:08;99787.13;;;4.41;100.00
60489;BME280;46331;49.252;8.904;2023-12-20T00:30:49;99777.91;;;4.52;100.00
60489;BME280;46331;49.252;8.904;2023-12-20T00:31:29;99781.69;;;4.43;100.00
60489;BME280;46331;49.252;8.904;2023-12-20T00:32:10;99780.25;;;4.40;100.00
60489;BME280;46331;49.252;8.904;2023-12-20T00:32:50;99780.31;;;4.54;100.00
60489;BME280;46331;49.252;8.904;2023-12-20T00:33:31;99774.28;;;4.53;100.00
60489;BME280;46331;49.252;8.904;2023-12-20T00:34:11;99779.06;;;4.43;100.00
60489;BME280;46331;49.252;8.904;2023-12-20T00:34:52;99779.28;;;4.48;100.00
60489;BME280;46331;49.252;8.904;2023-12-20T00:35:33;99787.06;;;4.28;100.00
60489;BME280;46331;49.252;8.904;2023-12-20T00:36:13;99788.09;;;4.27;100.00
60489;BME280;46331;49.252;8.904;2023-12-20T00:36:54;99782.66;;;4.28;100.00
60489;BME280;46331;49.252;8.904;2023-12-20T00:37:35;99782.84;;;4.27;100.00
60489;BME280;46331;49.252;8.904;2023-12-20T00:38:15;99784.03;;;4.24;100.00
60489;BME280;46331;49.252;8.904;2023-12-20T00:38:56;99789.50;;;4.29;100.00
60489;BME280;46331;49.252;8.904;2023-12-20T00:39:37;99785.09;;;4.37;100.00
60489;BME280;46331;49.252;8.904;2023-12-20T00:40:17;99787.13;;;4.35;100.00
60489;BME280;46331;49.252;8.904;2023-12-20T00:40:58;99783.53;;;4.42;100.00
60489;BME280;46331;49.252;8.904;2023-12-20T00:41:38;99776.44;;;4.43;100.00
60489;BME280;46331;49.252;8.904;2023-12-20T00:42:19;99788.72;;;4.36;100.00
60489;BME280;46331;49.252;8.904;2023-12-20T00:43:00;99780.06;;;4.42;100.00
60489;BME280;46331;49.252;8.904;2023-12-20T00:43:40;99779.66;;;4.38;100.00
60489;BME280;46331;49.252;8.904;2023-12-20T00:44:21;99779.63;;;4.32;100.00
60489;BME280;46331;49.252;8.904;2023-12-20T00:45:02;99779.81;;;4.30;100.00
60489;BME280;46331;49.252;8.904;2023-12-20T00:45:44;99778.22;;;4.36;100.00
60489;BME280;46331;49.252;8.904;2023-12-20T00:46:25;99778.69;;;4.46;100.00
60489;BME280;46331;49.252;8.904;2023-12-20T00:47:05;99782.34;;;4.52;100.00
60489;BME280;46331;49.252;8.904;2023-12-20T00:47:46;99775.69;;;4.56;100.00
60489;BME280;46331;49.252;8.904;2023-12-20T00:48:26;99778.09;;;4.57;100.00
60489;BME280;46331;49.252;8.904;2023-12-20T00:49:07;99779.28;;;4.48;100.00
60489;BME280;46331;49.252;8.904;2023-12-20T00:49:48;99782.75;;;4.55;100.00
60489;BME280;46331;49.252;8.904;2023-12-20T00:50:28;99775.06;;;4.54;100.00
60489;BME280;46331;49.252;8.904;2023-12-20T00:51:09;99774.28;;;4.60;100.00
60489;BME280;46331;49.252;8.904;2023-12-20T00:51:49;99774.69;;;4.63;100.00
60489;BME280;46331;49.252;8.904;2023-12-20T00:52:30;99776.13;;;4.59;100.00
60489;BME280;46331;49.252;8.904;2023-12-20T00:53:11;99766.81;;;4.63;100.00
60489;BME280;46331;49.252;8.904;2023-12-20T00:53:51;99766.81;;;4.63;100.00
60489;BME280;46331;49.252;8.904;2023-12-20T00:54:35;99767.22;;;4.60;100.00
60489;BME280;46331;49.252;8.904;2023-12-20T00:55:15;99769.25;;;4.65;100.00
60489;BME280;46331;49.252;8.904;2023-12-20T00:55:56;99772.31;;;4.69;100.00
60489;BME280;46331;49.252;8.904;2023-12-20T00:56:36;99767.06;;;4.69;100.00
60489;BME280;46331;49.252;8.904;2023-12-20T00:57:17;99765.63;;;4.59;100.00
60489;BME280;46331;49.252;8.904;2023-12-20T00:57:58;99761.97;;;4.60;100.00
60489;BME280;46331;49.252;8.904;2023-12-20T00:58:40;99766.63;;;4.65;100.00
60489;BME280;46331;49.252;8.904;2023-12-20T00:59:20;99761.59;;;4.70;100.00
60489;BME280;46331;49.252;8.904;2023-12-20T01:00:01;99766.03;;;4.70;100.00
60489;BME280;46331;49.252;8.904;2023-12-20T01:00:42;99756.50;;;4.62;100.00
60489;BME280;46331;49.252;8.904;2023-12-20T01:01:23;99758.94;;;4.63;100.00
60489;BME280;46331;49.252;8.904;2023-12-20T01:02:03;99758.94;;;4.63;100.00
60489;BME280;46331;49.252;8.904;2023-12-20T01:02:44;99763.19;;;4.64;100.00
60489;BME280;46331;49.252;8.904;2023-12-20T01:03:27;99768.66;;;4.63;100.00
60489;BME280;46331;49.252;8.904;2023-12-20T01:04:07;99767.25;;;4.67;100.00
60489;BME280;46331;49.252;8.904;2023-12-20T01:04:48;99771.00;;;4.51;100.00
60489;BME280;46331;49.252;8.904;2023-12-20T01:05:28;99771.44;;;4.55;100.00
60489;BME280;46331;49.252;8.904;2023-12-20T01:06:09;99760.50;;;4.51;100.00
60489;BME280;46331;49.252;8.904;2023-12-20T01:06:49;99766.19;;;4.55;100.00
60489;BME280;46331;49.252;8.904;2023-12-20T01:07:30;99775.06;;;4.54;100.00
60489;BME280;46331;49.252;8.904;2023-12-20T01:08:11;99773.69;;;4.58;100.00
60489;BME280;46331;49.252;8.904;2023-12-20T01:08:51;99772.28;;;4.62;100.00
60489;BME280;46331;49.252;8.904;2023-12-20T01:09:32;99765.63;;;4.66;100.00
60489;BME280;46331;49.252;8.904;2023-12-20T01:10:12;99769.25;;;4.65;100.00
60489;BME280;46331;49.252;8.904;2023-12-20T01:10:53;99763.00;;;4.66;100.00
60489;BME280;46331;49.252;8.904;2023-12-20T01:11:33;99773.31;;;4.68;100.00
60489;BME280;46331;49.252;8.904;2023-12-20T01:12:14;99767.44;;;4.65;100.00
60489;BME280;46331;49.252;8.904;2023-12-20T01:12:55;99774.16;;;4.75;100.00
60489;BME280;46331;49.252;8.904;2023-12-20T01:13:35;99771.53;;;4.75;100.00
60489;BME280;46331;49.252;8.904;2023-12-20T01:14:15;99769.69;;;4.75;100.00
60489;BME280;46331;49.252;8.904;2023-12-20T01:14:56;99768.06;;;4.68;100.00
60489;BME280;46331;49.252;8.904;2023-12-20T01:15:36;99765.03;;;4.64;100.00
60489;BME280;46331;49.252;8.904;2023-12-20T01:16:17;99766.66;;;4.72;100.00
60489;BME280;46331;49.252;8.904;2023-12-20T01:16:57;99761.22;;;4.80;100.00
60489;BME280;46331;49.252;8.904;2023-12-20T01:17:38;99765.44;;;4.74;100.00
60489;BME280;46331;49.252;8.904;2023-12-20T01:18:18;99773.50;;;4.73;100.00
60489;BME280;46331;49.252;8.904;2023-12-20T01:18:59;99770.94;;;4.79;100.00
60489;BME280;46331;49.252;8.904;2023-12-20T01:19:39;99775.34;;;4.72;100.00
60489;BME280;46331;49.252;8.904;2023-12-20T01:20:20;99771.91;;;4.72;100.00
60489;BME280;46331;49.252;8.904;2023-12-20T01:21:03;99770.28;;;4.71;100.00
60489;BME280;46331;49.252;8.904;2023-12-20T01:21:44;99765.25;;;4.76;100.00
60489;BME280;46331;49.252;8.904;2023-12-20T01:22:24;99765.63;;;4.73;100.00
60489;BME280;46331;49.252;8.904;2023-12-20T01:23:05;99769.84;;;4.60;100.00
60489;BME280;46331;49.252;8.904;2023-12-20T01:23:45;99766.41;;;4.66;100.00
60489;BME280;46331;49.252;8.904;2023-12-20T01:24:26;99769.09;;;4.73;100.00
60489;BME280;46331;49.252;8.904;2023-12-20T01:25:06;99770.06;;;4.65;100.00
60489;BME280;46331;49.252;8.904;2023-12-20T01:25:48;99761.41;;;4.72;100.00
60489;BME280;46331;49.252;8.904;2023-12-20T01:26:28;99770.28;;;4.71;100.00
60489;BME280;46331;49.252;8.904;2023-12-20T01:27:09;99764.25;;;4.77;100.00
60489;BME280;46331;49.252;8.904;2023-12-20T01:27:49;99763.44;;;4.76;100.00
60489;BME280;46331;49.252;8.904;2023-12-20T01:28:30;99768.25;;;4.73;100.00
60489;BME280;46331;49.252;8.904;2023-12-20T01:29:10;99771.72;;;4.80;100.00
60489;BME280;46331;49.252;8.904;2023-12-20T01:29:51;99758.41;;;4.88;100.00
60489;BME280;46331;49.252;8.904;2023-12-20T01:30:32;99761.44;;;4.85;100.00
60489;BME280;46331;49.252;8.904;2023-12-20T01:31:12;99751.72;;;4.79;100.00
60489;BME280;46331;49.252;8.904;2023-12-20T01:31:53;99756.16;;;4.78;100.00
60489;BME280;46331;49.252;8.904;2023-12-20T01:32:33;99770.69;;;4.74;100.00
60489;BME280;46331;49.252;8.904;2023-12-20T01:33:13;99758.16;;;4.70;100.00
60489;BME280;46331;49.252;8.904;2023-12-20T01:33:54;99752.50;;;4.73;100.00
60489;BME280;46331;49.252;8.904;2023-12-20T01:34:34;99759.38;;;4.80;100.00
60489;BME280;46331;49.252;8.904;2023-12-20T01:35:16;99756.38;;;4.83;100.00
60489;BME280;46331;49.252;8.904;2023-12-20T01:35:56;99765.63;;;4.73;100.00
60489;BME280;46331;49.252;8.904;2023-12-20T01:36:37;99760.38;;;4.66;100.00
60489;BME280;46331;49.252;8.904;2023-12-20T01:37:17;99759.00;;;4.77;100.00
60489;BME280;46331;49.252;8.904;2023-12-20T01:37:58;99756.16;;;4.72;100.00
60489;BME280;46331;49.252;8.904;2023-12-20T01:38:38;99752.34;;;4.81;100.00
60489;BME280;46331;49.252;8.904;2023-12-20T01:39:19;99755.56;;;4.83;100.00
60489;BME280;46331;49.252;8.904;2023-12-20T01:39:59;99755.97;;;4.87;100.00
60489;BME280;46331;49.252;8.904;2023-12-20T01:40:40;99760.22;;;4.88;100.00
60489;BME280;46331;49.252;8.904;2023-12-20T01:41:21;99756.16;;;4.78;100.00
60489;BME280;46331;49.252;8.904;2023-12-20T01:42:01;99748.91;;;4.87;100.00
60489;BME280;46331;49.252;8.904;2023-12-20T01:42:42;99751.75;;;4.86;100.00
60489;BME280;46331;49.252;8.904;2023-12-20T01:43:23;99758.00;;;4.78;100.00
60489;BME280;46331;49.252;8.904;2023-12-20T01:44:03;99749.50;;;4.82;100.00
60489;BME280;46331;49.252;8.904;2023-12-20T01:44:44;99755.38;;;4.84;100.00
60489;BME280;46331;49.252;8.904;2023-12-20T01:45:25;99755.38;;;4.78;100.00
60489;BME280;46331;49.252;8.904;2023-12-20T01:46:05;99748.09;;;4.87;100.00
60489;BME280;46331;49.252;8.904;2023-12-20T01:46:46;99759.44;;;4.87;100.00
60489;BME280;46331;49.252;8.904;2023-12-20T01:47:27;99757.19;;;4.91;100.00
60489;BME280;46331;49.252;8.904;2023-12-20T01:48:08;99754.13;;;4.80;100.00
60489;BME280;46331;49.252;8.904;2023-12-20T01:48:51;99753.97;;;4.89;100.00
60489;BME280;46331;49.252;8.904;2023-12-20T01:49:32;99755.38;;;4.91;100.00
60489;BME280;46331;49.252;8.904;2023-12-20T01:50:12;99754.56;;;4.91;100.00
60489;BME280;46331;49.252;8.904;2023-12-20T01:50:53;99752.94;;;4.90;100.00
60489;BME280;46331;49.252;8.904;2023-12-20T01:51:35;99750.94;;;4.92;100.00
60489;BME280;46331;49.252;8.904;2023-12-20T01:52:16;99750.56;;;4.95;100.00
60489;BME280;46331;49.252;8.904;2023-12-20T01:53:00;99743.88;;;4.92;100.00
60489;BME280;46331;49.252;8.904;2023-12-20T01:53:41;99752.53;;;4.86;100.00
60489;BME280;46331;49.252;8.904;2023-12-20T01:54:22;99753.75;;;4.83;100.00
60489;BME280;46331;49.252;8.904;2023-12-20T01:55:04;99750.13;;;4.84;100.00
60489;BME280;46331;49.252;8.904;2023-12-20T01:55:54;99753.78;;;4.90;100.00
60489;BME280;46331;49.252;8.904;2023-12-20T01:56:35;99750.50;;;4.81;100.00
60489;BME280;46331;49.252;8.904;2023-12-20T01:57:16;99746.44;;;4.79;100.00
60489;BME280;46331;49.252;8.904;2023-12-20T01:57:58;99755.56;;;4.83;100.00
60489;BME280;46331;49.252;8.904;2023-12-20T01:58:44;99748.28;;;4.85;100.00
60489;BME280;46331;49.252;8.904;2023-12-20T01:59:25;99751.13;;;4.83;100.00
60489;BME280;46331;49.252;8.904;2023-12-20T02:00:06;99741.84;;;4.81;100.00
60489;BME280;46331;49.252;8.904;2023-12-20T02:00:47;99743.88;;;4.86;100.00
60489;BME280;46331;49.252;8.904;2023-12-20T02:01:28;99744.63;;;4.73;100.00
60489;BME280;46331;49.252;8.904;2023-12-20T02:02:09;99753.75;;;4.83;100.00
60489;BME280;46331;49.252;8.904;2023-12-20T02:02:53;99747.50;;;4.84;100.00
60489;BME280;46331;49.252;8.904;2023-12-20T02:03:35;99748.06;;;4.73;100.00
60489;BME280;46331;49.252;8.904;2023-12-20T02:04:17;99747.09;;;4.81;100.00
60489;BME280;46331;49.252;8.904;2023-12-20T02:04:57;99749.91;;;4.86;100.00
60489;BME280;46331;49.252;8.904;2023-12-20T02:05:38;99752.94;;;4.83;100.00
60489;BME280;46331;49.252;8.904;2023-12-20T02:06:21;99745.25;;;4.88;100.00
60489;BME280;46331;49.252;8.904;2023-12-20T02:07:02;99756.16;;;4.85;100.00
60489;BME280;46331;49.252;8.904;2023-12-20T02:07:43;99746.69;;;4.84;100.00
60489;BME280;46331;49.252;8.904;2023-12-20T02:08:24;99757.59;;;4.81;100.00
60489;BME280;46331;49.252;8.904;2023-12-20T02:09:05;99754.78;;;4.89;100.00
60489;BME280;46331;49.252;8.904;2023-12-20T02:09:46;99762.06;;;4.87;100.00
60489;BME280;46331;49.252;8.904;2023-12-20T02:10:27;99758.59;;;4.87;100.00
60489;BME280;46331;49.252;8.904;2023-12-20T02:11:07;99767.47;;;4.79;100.00
60489;BME280;46331;49.252;8.904;2023-12-20T02:11:49;99756.16;;;4.78;100.00
60489;BME280;46331;49.252;8.904;2023-12-20T02:12:30;99758.97;;;4.70;100.00
60489;BME280;46331;49.252;8.904;2023-12-20T02:13:10;99765.03;;;4.71;100.00
60489;BME280;46331;49.252;8.904;2023-12-20T02:13:51;99754.72;;;4.76;100.00
60489;BME280;46331;49.252;8.904;2023-12-20T02:14:31;99752.72;;;4.78;100.00
60489;BME280;46331;49.252;8.904;2023-12-20T02:15:12;99750.31;;;4.83;100.00
60489;BME280;46331;49.252;8.904;2023-12-20T02:15:53;99757.75;;;4.73;100.00
60489;BME280;46331;49.252;8.904;2023-12-20T02:16:34;99755.38;;;4.84;100.00
60489;BME280;46331;49.252;8.904;2023-12-20T02:17:15;99761.22;;;4.80;100.00
60489;BME280;46331;49.252;8.904;2023-12-20T02:17:56;99758.78;;;4.85;100.00
60489;BME280;46331;49.252;8.904;2023-12-20T02:18:37;99758.19;;;4.83;100.00
60489;BME280;46331;49.252;8.904;2023-12-20T02:19:19;99758.38;;;4.75;100.00
60489;BME280;46331;49.252;8.904;2023-12-20T02:20:00;99760.22;;;4.81;100.00
60489;BME280;46331;49.252;8.904;2023-12-20T02:20:41;99757.34;;;4.76;100.00
60489;BME280;46331;49.252;8.904;2023-12-20T02:21:33;99756.16;;;4.78;100.00
60489;BME280;46331;49.252;8.904;2023-12-20T02:22:15;99756.56;;;4.82;100.00
60489;BME280;46331;49.252;8.904;2023-12-20T02:22:55;99758.19;;;4.83;100.00
60489;BME280;46331;49.252;8.904;2023-12-20T02:23:36;99748.50;;;4.83;100.00
60489;BME280;46331;49.252;8.904;2023-12-20T02:24:16;99760.81;;;4.83;100.00
60489;BME280;46331;49.252;8.904;2023-12-20T02:24:57;99762.66;;;4.89;100.00
60489;BME280;46331;49.252;8.904;2023-12-20T02:25:38;99754.56;;;4.84;100.00
60489;BME280;46331;49.252;8.904;2023-12-20T02:26:19;99756.97;;;4.79;100.00
60489;BME280;46331;49.252;8.904;2023-12-20T02:26:59;99768.25;;;4.73;100.00
60489;BME280;46331;49.252;8.904;2023-12-20T02:27:40;99756.75;;;4.80;100.00
60489;BME280;46331;49.252;8.904;2023-12-20T02:28:21;99763.84;;;4.87;100.00
60489;BME280;46331;49.252;8.904;2023-12-20T02:29:02;99766.66;;;4.72;100.00
60489;BME280;46331;49.252;8.904;2023-12-20T02:29:43;99768.72;;;4.83;100.00
60489;BME280;46331;49.252;8.904;2023-12-20T02:30:23;99764.06;;;4.85;100.00
60489;BME280;46331;49.252;8.904;2023-12-20T02:31:04;99759.22;;;4.89;100.00
60489;BME280;46331;49.252;8.904;2023-12-20T02:31:44;99756.59;;;4.89;100.00
60489;BME280;46331;49.252;8.904;2023-12-20T02:32:25;99756.00;;;4.93;100.00
60489;BME280;46331;49.252;8.904;2023-12-20T02:33:12;99755.41;;;4.98;100.00
60489;BME280;46331;49.252;8.904;2023-12-20T02:33:52;99753.78;;;4.90;100.00
60489;BME280;46331;49.252;8.904;2023-12-20T02:34:33;99746.50;;;4.92;100.00
60489;BME280;46331;49.252;8.904;2023-12-20T02:35:13;99746.50;;;4.92;100.00
60489;BME280;46331;49.252;8.904;2023-12-20T02:35:54;99746.69;;;4.91;100.00
60489;BME280;46331;49.252;8.904;2023-12-20T02:36:34;99751.75;;;4.92;100.00
60489;BME280;46331;49.252;8.904;2023-12-20T02:37:15;99748.13;;;5.00;100.00
60489;BME280;46331;49.252;8.904;2023-12-20T02:37:56;99748.72;;;5.02;100.00
60489;BME280;46331;49.252;8.904;2023-12-20T02:38:36;99752.94;;;4.83;100.00
60489;BME280;46331;49.252;8.904;2023-12-20T02:39:18;99756.00;;;4.93;100.00
60489;BME280;46331;49.252;8.904;2023-12-20T02:39:59;99756.00;;;4.93;100.00
60489;BME280;46331;49.252;8.904;2023-12-20T02:40:40;99753.38;;;4.93;100.00
60489;BME280;46331;49.252;8.904;2023-12-20T02:41:20;99750.13;;;4.91;100.00
60489;BME280;46331;49.252;8.904;2023-12-20T02:42:00;99754.19;;;4.87;100.00
60489;BME280;46331;49.252;8.904;2023-12-20T02:42:41;99746.50;;;4.92;100.00
60489;BME280;46331;49.252;8.904;2023-12-20T02:43:21;99755.41;;;4.98;100.00
60489;BME280;46331;49.252;8.904;2023-12-20T02:44:03;99762.47;;;4.97;100.00
60489;BME280;46331;49.252;8.904;2023-12-20T02:44:44;99753.78;;;4.97;100.00
60489;BME280;46331;49.252;8.904;2023-12-20T02:45:24;99761.47;;;4.92;100.00
60489;BME280;46331;49.252;8.904;2023-12-20T02:46:05;99756.16;;;4.85;100.00
60489;BME280;46331;49.252;8.904;2023-12-20T02:46:46;99757.41;;;4.82;100.00
60489;BME280;46331;49.252;8.904;2023-12-20T02:47:26;99761.06;;;4.95;100.00
60489;BME280;46331;49.252;8.904;2023-12-20T02:48:07;99769.31;;;4.85;100.00
60489;BME280;46331;49.252;8.904;2023-12-20T02:48:47;99763.88;;;4.93;100.00
60489;BME280;46331;49.252;8.904;2023-12-20T02:49:28;99756.59;;;4.89;100.00
60489;BME280;46331;49.252;8.904;2023-12-20T02:50:08;99766.50;;;4.93;100.00
60489;BME280;46331;49.252;8.904;2023-12-20T02:50:49;99759.22;;;4.89;100.00
60489;BME280;46331;49.252;8.904;2023-12-20T02:51:29;99757.81;;;4.86;100.00
60489;BME280;46331;49.252;8.904;2023-12-20T02:52:10;99762.84;;;4.88;100.00
60489;BME280;46331;49.252;8.904;2023-12-20T02:52:50;99763.84;;;4.87;100.00
60489;BME280;46331;49.252;8.904;2023-12-20T02:53:31;99761.44;;;4.85;100.00
60489;BME280;46331;49.252;8.904;2023-12-20T02:54:11;99754.19;;;4.94;100.00
60489;BME280;46331;49.252;8.904;2023-12-20T02:54:52;99758.22;;;4.96;100.00
60489;BME280;46331;49.252;8.904;2023-12-20T02:55:32;99760.44;;;4.86;100.00
60489;BME280;46331;49.252;8.904;2023-12-20T02:56:13;99761.66;;;4.90;100.00
60489;BME280;46331;49.252;8.904;2023-12-20T02:56:54;99759.81;;;4.84;100.00
60489;BME280;46331;49.252;8.904;2023-12-20T02:57:35;99763.25;;;4.78;100.00
60489;BME280;46331;49.252;8.904;2023-12-20T02:58:16;99765.03;;;4.77;100.00
60489;BME280;46331;49.252;8.904;2023-12-20T02:58:58;99764.66;;;4.80;100.00
60489;BME280;46331;49.252;8.904;2023-12-20T02:59:38;99766.47;;;4.87;100.00
60489;BME280;46331;49.252;8.904;2023-12-20T03:00:19;99768.50;;;4.78;100.00
60489;BME280;46331;49.252;8.904;2023-12-20T03:00:59;99778.41;;;4.82;100.00
60489;BME280;46331;49.252;8.904;2023-12-20T03:01:44;99764.69;;;4.87;100.00
60489;BME280;46331;49.252;8.904;2023-12-20T03:02:25;99765.47;;;4.88;100.00
60489;BME280;46331;49.252;8.904;2023-12-20T03:03:05;99765.28;;;4.89;100.00
60489;BME280;46331;49.252;8.904;2023-12-20T03:03:46;99763.06;;;4.86;100.00
60489;BME280;46331;49.252;8.904;2023-12-20T03:04:26;99765.88;;;4.84;100.00
60489;BME280;46331;49.252;8.904;2023-12-20T03:05:07;99761.44;;;4.85;100.00
60489;BME280;46331;49.252;8.904;2023-12-20T03:05:47;99763.84;;;4.87;100.00
60489;BME280;46331;49.252;8.904;2023-12-20T03:06:28;99765.88;;;4.84;100.00
60489;BME280;46331;49.252;8.904;2023-12-20T03:07:08;99761.66;;;4.90;100.00
60489;BME280;46331;49.252;8.904;2023-12-20T03:07:49;99764.69;;;4.94;100.00
60489;BME280;46331;49.252;8.904;2023-12-20T03:08:29;99764.09;;;4.92;100.00
60489;BME280;46331;49.252;8.904;2023-12-20T03:09:10;99758.84;;;4.98;100.00
60489;BME280;46331;49.252;8.904;2023-12-20T03:09:50;99763.47;;;4.90;100.00
60489;BME280;46331;49.252;8.904;2023-12-20T03:10:31;99763.44;;;4.83;100.00
60489;BME280;46331;49.252;8.904;2023-12-20T03:11:11;99757.81;;;4.86;100.00
60489;BME280;46331;49.252;8.904;2023-12-20T03:11:52;99766.91;;;4.97;100.00
60489;BME280;46331;49.252;8.904;2023-12-20T03:12:32;99766.91;;;4.90;100.00
60489;BME280;46331;49.252;8.904;2023-12-20T03:13:13;99761.03;;;4.81;100.00
60489;BME280;46331;49.252;8.904;2023-12-20T03:13:54;99763.66;;;4.81;100.00
60489;BME280;46331;49.252;8.904;2023-12-20T03:14:34;99753.53;;;4.78;100.00
60489;BME280;46331;49.252;8.904;2023-12-20T03:15:15;99764.66;;;4.80;100.00
60489;BME280;46331;49.252;8.904;2023-12-20T03:15:55;99760.56;;;4.71;100.00
60489;BME280;46331;49.252;8.904;2023-12-20T03:16:36;99761.81;;;4.82;100.00
60489;BME280;46331;49.252;8.904;2023-12-20T03:17:16;99763.44;;;4.83;100.00
60489;BME280;46331;49.252;8.904;2023-12-20T03:17:57;99755.78;;;4.81;100.00
60489;BME280;46331;49.252;8.904;2023-12-20T03:18:39;99759.03;;;4.90;100.00
60489;BME280;46331;49.252;8.904;2023-12-20T03:19:20;99759.44;;;4.94;100.00
60489;BME280;46331;49.252;8.904;2023-12-20T03:20:00;99757.22;;;4.97;100.00
60489;BME280;46331;49.252;8.904;2023-12-20T03:20:41;99759.03;;;4.90;100.00
60489;BME280;46331;49.252;8.904;2023-12-20T03:21:22;99756.59;;;4.89;100.00
60489;BME280;46331;49.252;8.904;2023-12-20T03:22:02;99757.19;;;4.91;100.00
60489;BME280;46331;49.252;8.904;2023-12-20T03:22:43;99760.63;;;4.91;100.00
60489;BME280;46331;49.252;8.904;2023-12-20T03:23:23;99762.06;;;4.87;100.00
60489;BME280;46331;49.252;8.904;2023-12-20T03:24:04;99760.44;;;4.93;100.00
60489;BME280;46331;49.252;8.904;2023-12-20T03:24:45;99765.50;;;4.94;100.00
60489;BME280;46331;49.252;8.904;2023-12-20T03:25:25;99758.22;;;4.96;100.00
60489;BME280;46331;49.252;8.904;2023-12-20T03:26:09;99758.22;;;4.96;100.00
60489;BME280;46331;49.252;8.904;2023-12-20T03:26:50;99757.84;;;4.99;100.00
60489;BME280;46331;49.252;8.904;2023-12-20T03:27:30;99764.50;;;4.95;100.00
60489;BME280;46331;49.252;8.904;2023-12-20T03:28:11;99761.47;;;4.92;100.00
60489;BME280;46331;49.252;8.904;2023-12-20T03:28:51;99761.22;;;4.87;100.00
60489;BME280;46331;49.252;8.904;2023-12-20T03:29:32;99761.81;;;4.82;100.00
60489;BME280;46331;49.252;8.904;2023-12-20T03:30:12;99772.72;;;4.79;100.00
60489;BME280;46331;49.252;8.904;2023-12-20T03:30:53;99764.88;;;4.86;100.00
60489;BME280;46331;49.252;8.904;2023-12-20T03:31:34;99765.66;;;4.79;100.00
60489;BME280;46331;49.252;8.904;2023-12-20T03:32:14;99763.44;;;4.83;100.00
60489;BME280;46331;49.252;8.904;2023-12-20T03:32:54;99773.50;;;4.73;100.00
60489;BME280;46331;49.252;8.904;2023-12-20T03:33:35;99763.84;;;4.87;100.00
60489;BME280;46331;49.252;8.904;2023-12-20T03:34:15;99761.47;;;4.92;100.00
60489;BME280;46331;49.252;8.904;2023-12-20T03:34:56;99769.94;;;4.87;100.00
60489;BME280;46331;49.252;8.904;2023-12-20T03:35:36;99769.50;;;4.77;100.00
60489;BME280;46331;49.252;8.904;2023-12-20T03:36:17;99769.69;;;4.82;100.00